Rockville Center, New York
Current Conditions -  °F | °C
As of 6:51 AM on Thursday 29 Jan 2015 (Local Time) from KJFK Reporting Station
Few Clouds Few Clouds  
Wind Chill: 11°   Ceiling: Unl
Heat Index: 19°   Visibility: 10mi
Dew Point:   Wind: 6mph
Humidity: 50%   Direction: 10°N
Pressure: 30.33"   Gusts: NA
Location:  40.6644°N, 73.6384°W
Report Text: KJFK 291151Z 01005KT 10SM FEW250 M07/M16 A3033 RMK AO2 SLP269 4/009 T10721161 11050 21078 53004 $
Loading
Personal Weather Stations






























Interactive Weather Map New forecast layout! Learn more

10-Day Weather Forecast

Advertisements
Track Severe Weather on mobile